Aérodrome :
LOGIN :

S'inscrire | Disclaimer

   EN    FR    IT 

 










Légende :    VFR   VFR Marginal   IFR   IFR Intensif   IFR Très Intensif
Visi : 
Plafond : 
>= 8 km
>= 3000ft
5 à 8 km
1000 à 3000 ft
1500m à 5 km
500 à 1000 ft
800 à 1500m
200 à 500 ft
< 800m
< 200 ft
Symboles :   Orages  Brouillard  Fortes neiges  Fortes précipitations  Vent > 20 kt
SIGMETs :   Divers  Orages  Givrage  Turbulence  Onde Orograph.  Cendres Volcan.







- Altitude de l'aérodrome : 146 ft
- Code IATA : RKE


EKRK - Roskilde Tune

DERNIER METAR :
  • 220520Z 27003KT 9999 BKN006 BKN015 06/05 Q1032

METARs EXPIRÉS :
  • 220452Z 29003KT 9999 BKN006 BKN015 06/05 Q1032
  • 220419Z 34001KT 9999 FEW003 SCT008 BKN015 07/06 Q1032
  • 220350Z 30005KT 9999 FEW003 SCT009 BKN015 07/06 Q1032
  • 220320Z 32004KT 290V350 9999 FEW006 SCT009 BKN014 07/06 Q1031
  • 220251Z 32005KT 9999 FEW006 SCT012 BKN015 07/06 Q1031

TAF TAF EKRK
Valide du 22 à 06h jusqu'au 22 à 15h UTC


220524Z 2206/2215 30005KT 9999 SCT008 BKN015
TEMPO 2206/2209 0200 FG VV001
TEMPO 2209/2215 BKN008
Pas de NOTAMs connus pour ce terrain.



MET'MAP, la Météo Aéronautique d'un coup d'oeil ! - Copyright ORBIFLY Décembre 2007 - Disclaimer

ORBIFLY MET'MAP TEAM :

Programmation & Développement : Alexandra Zaïnal
Conception & Développement : Baudouin d'Aumeries
Co-Programmation & Développement : Marc-Olivier Méhu
Soutien technique & logistique : Manuel Goepfert

Contact : metmap@orbifly.com




SOURCES & CREDITS :

   NOAA